Time;durP1;ratioP1;P1;durP2;ratioP2;P2;SDS_P1;SDS_P2;PMS_P1;PMS_P2;Temp;Humidity;BMP_temperature;BMP_pressure;BME280_temperature;BME280_humidity;BME280_pressure;Samples;Min_cycle;Max_cycle;Signal;HPM_P1;HPM_P2
2023/05/15 00:00:10;;;;;;;10.48;5.30;;;;;;;14.89;70.16;99065.53;7667978;32;38610;-83
2023/05/15 00:04:26;;;;;;;7.70;4.57;;;;;;;15.11;69.35;99052.81;7658739;32;37262;-83
2023/05/15 00:08:43;;;;;;;8.38;5.30;;;;;;;15.16;69.10;99041.69;7658551;32;40299;-83
2023/05/15 00:12:59;;;;;;;8.68;5.07;;;;;;;15.10;69.13;99032.78;7658589;32;40731;-83
2023/05/15 00:17:16;;;;;;;8.32;5.05;;;;;;;15.08;69.10;99042.50;7659862;32;37852;-83
2023/05/15 00:21:32;;;;;;;6.43;4.90;;;;;;;15.01;69.37;99035.53;7684932;32;37182;-84
2023/05/15 00:25:48;;;;;;;8.13;5.25;;;;;;;14.93;69.71;99035.50;7684844;32;39385;-83
2023/05/15 00:30:05;;;;;;;9.18;5.28;;;;;;;14.91;70.00;99040.50;7684426;32;40623;-84
2023/05/15 00:34:22;;;;;;;6.82;4.82;;;;;;;15.10;69.46;99045.72;7684777;32;38030;-83
2023/05/15 00:38:38;;;;;;;6.62;4.75;;;;;;;14.98;69.75;99040.84;7671180;32;37227;-84
2023/05/15 00:42:55;;;;;;;6.82;4.62;;;;;;;15.01;69.59;99043.75;7684827;32;39018;-84
2023/05/15 00:47:11;;;;;;;11.43;5.05;;;;;;;15.00;69.63;99050.41;7669787;32;40039;-83
2023/05/15 00:51:27;;;;;;;10.65;5.15;;;;;;;14.93;69.79;99073.94;7658113;32;38753;-84
2023/05/15 00:55:46;;;;;;;9.05;5.07;;;;;;;14.96;69.93;99079.59;7657936;32;37374;-84
2023/05/15 01:00:05;;;;;;;7.95;5.03;;;;;;;14.82;70.62;99073.41;7658193;32;38392;-84
2023/05/15 01:04:22;;;;;;;6.35;4.37;;;;;;;15.05;69.85;99065.09;7658053;32;40823;-84
2023/05/15 01:08:43;;;;;;;9.98;5.18;;;;;;;15.12;69.66;99052.50;7644389;32;38602;-84
2023/05/15 01:13:01;;;;;;;5.40;4.10;;;;;;;15.28;69.63;99039.13;7644718;32;37228;-83
2023/05/15 01:17:17;;;;;;;6.07;4.45;;;;;;;15.22;69.03;99026.69;7644151;32;40213;-84
2023/05/15 01:21:36;;;;;;;8.70;4.40;;;;;;;15.20;69.08;99021.50;7677199;32;39882;-83
2023/05/15 01:25:53;;;;;;;9.52;4.07;;;;;;;15.24;68.91;99013.44;7670231;32;37848;-83
2023/05/15 01:30:22;;;;;;;6.50;4.03;;;;;;;15.09;69.17;98987.28;7683775;32;37686;-84
2023/05/15 01:34:44;;;;;;;5.80;3.92;;;;;;;15.07;69.07;98975.78;7671447;32;39370;-84
2023/05/15 01:39:02;;;;;;;5.85;4.18;;;;;;;15.09;68.68;98976.31;7657538;32;39762;-84
2023/05/15 01:43:23;;;;;;;6.87;4.50;;;;;;;14.92;69.32;98985.31;7643843;32;38605;-83
2023/05/15 01:47:43;;;;;;;7.00;4.75;;;;;;;14.81;70.00;98986.72;7662260;32;37879;-84
2023/05/15 01:52:07;;;;;;;8.30;5.57;;;;;;;15.07;69.34;98975.00;7670261;32;39391;-83
2023/05/15 01:56:25;;;;;;;8.90;5.22;;;;;;;14.88;70.21;98978.03;7683002;32;39945;-84
2023/05/15 02:00:41;;;;;;;9.95;6.25;;;;;;;14.91;70.00;98980.94;7668327;32;37819;-83
2023/05/15 02:04:58;;;;;;;9.38;5.90;;;;;;;14.45;71.55;98991.28;7670488;32;37040;-83
2023/05/15 02:09:15;;;;;;;11.02;6.68;;;;;;;14.56;71.91;99002.78;7672970;32;40569;-84
2023/05/15 02:13:32;;;;;;;9.00;6.28;;;;;;;14.64;71.78;99004.78;7686678;32;39755;-83
2023/05/15 02:17:48;;;;;;;9.75;6.30;;;;;;;14.56;72.13;98983.56;7664072;32;38688;-83
2023/05/15 02:22:04;;;;;;;11.15;6.45;;;;;;;14.62;71.76;98995.22;7646385;32;37244;-83
2023/05/15 02:26:46;;;;;;;10.00;6.10;;;;;;;14.70;71.51;98999.16;7660000;32;39889;-83
2023/05/15 02:31:15;;;;;;;9.93;6.68;;;;;;;14.97;70.62;99017.25;7648031;32;39637;-84
2023/05/15 02:36:05;;;;;;;8.40;5.30;;;;;;;15.01;70.49;99032.78;7647124;32;38656;-84
2023/05/15 02:40:24;;;;;;;8.05;5.32;;;;;;;15.21;69.75;99023.13;7659771;32;37338;-83
2023/05/15 02:44:42;;;;;;;8.52;5.68;;;;;;;15.23;69.45;99036.56;7659825;32;39203;-84
2023/05/15 02:48:58;;;;;;;7.65;5.00;;;;;;;15.43;68.60;99037.03;7664382;32;40022;-83
2023/05/15 02:53:15;;;;;;;11.70;5.80;;;;;;;15.49;68.24;99033.03;7685603;32;38499;-83
2023/05/15 02:57:31;;;;;;;7.57;5.35;;;;;;;15.48;67.87;99037.69;7685962;32;37763;-84
2023/05/15 03:01:47;;;;;;;12.60;5.93;;;;;;;15.57;67.50;99023.94;7685761;32;39321;-84
2023/05/15 03:06:04;;;;;;;12.57;5.80;;;;;;;15.44;67.98;99008.47;7685759;32;40787;-83
2023/05/15 03:10:23;;;;;;;10.52;5.65;;;;;;;15.34;68.02;98999.38;7685785;32;37919;-84
2023/05/15 03:14:39;;;;;;;9.25;6.07;;;;;;;15.43;67.69;98991.16;7685767;32;37755;-84
2023/05/15 03:18:55;;;;;;;8.18;5.53;;;;;;;15.42;67.85;98994.22;7669692;32;40091;-84
2023/05/15 03:23:11;;;;;;;8.48;5.62;;;;;;;15.56;67.28;98978.41;7659220;32;40707;-84
2023/05/15 03:27:28;;;;;;;8.20;5.62;;;;;;;15.54;67.29;98972.44;7659002;32;38781;-84
2023/05/15 03:31:44;;;;;;;8.18;5.53;;;;;;;15.29;68.26;98969.34;7645744;32;38006;-84
2023/05/15 03:36:00;;;;;;;12.30;5.82;;;;;;;15.17;68.69;98977.41;7659147;32;39347;-84
2023/05/15 03:40:17;;;;;;;11.57;5.68;;;;;;;15.20;68.90;98976.78;7658928;32;39911;-83
2023/05/15 03:44:33;;;;;;;9.07;5.78;;;;;;;15.38;68.27;98970.16;7658839;32;37858;-84
2023/05/15 03:48:50;;;;;;;12.13;5.22;;;;;;;15.34;68.34;98958.19;7659471;32;37443;-84
2023/05/15 03:53:06;;;;;;;10.88;5.15;;;;;;;15.31;68.54;98964.34;7658857;32;39468;-84
2023/05/15 03:57:22;;;;;;;9.15;6.03;;;;;;;15.33;68.63;98972.25;7658860;32;39989;-83
2023/05/15 04:01:39;;;;;;;9.77;5.62;;;;;;;15.24;69.00;98972.25;7658732;32;37550;-83
2023/05/15 04:06:15;;;;;;;8.82;5.45;;;;;;;15.23;69.34;98962.41;7658138;32;37195;-83
2023/05/15 04:10:32;;;;;;;9.27;5.57;;;;;;;15.52;68.16;98938.94;7658784;32;40057;-83
2023/05/15 04:14:48;;;;;;;7.45;4.95;;;;;;;15.49;68.46;98939.63;7658658;32;40839;-84
2023/05/15 04:19:05;;;;;;;10.13;5.45;;;;;;;15.40;68.97;98943.19;7667524;32;38622;-84
2023/05/15 04:23:21;;;;;;;11.88;6.75;;;;;;;15.56;68.61;98937.19;7658342;32;37072;-84
2023/05/15 04:27:38;;;;;;;13.52;6.28;;;;;;;15.73;68.02;98928.91;7658164;32;39400;-84
2023/05/15 04:31:54;;;;;;;11.80;6.45;;;;;;;15.81;68.12;98932.78;7644988;32;39888;-84
2023/05/15 04:36:10;;;;;;;11.55;6.93;;;;;;;15.87;68.06;98933.44;7658388;32;38725;-84
2023/05/15 04:40:27;;;;;;;11.25;7.25;;;;;;;16.02;67.79;98924.63;7658369;32;36944;-85
2023/05/15 04:44:43;;;;;;;10.82;7.00;;;;;;;15.90;68.42;98927.25;7658377;32;39501;-85
2023/05/15 04:49:00;;;;;;;12.65;7.75;;;;;;;16.01;68.30;98945.03;7664441;32;40441;-84
2023/05/15 04:53:16;;;;;;;14.32;7.37;;;;;;;16.06;68.17;98964.09;7684510;32;37883;-84
2023/05/15 04:57:32;;;;;;;12.50;6.97;;;;;;;16.08;67.81;98966.50;7684112;32;37878;-84
2023/05/15 05:01:50;;;;;;;14.25;7.53;;;;;;;16.04;67.98;98977.38;7684455;32;39613;-82
2023/05/15 05:06:06;;;;;;;9.93;6.40;;;;;;;15.98;68.06;98992.41;7684151;32;39900;-84
2023/05/15 05:10:23;;;;;;;10.30;6.25;;;;;;;15.97;67.89;98993.56;7665657;32;38562;-84
2023/05/15 05:14:40;;;;;;;8.85;6.25;;;;;;;15.92;68.53;98980.00;7657890;32;37593;-84
2023/05/15 05:18:57;;;;;;;11.82;6.15;;;;;;;16.19;67.87;98977.94;7675431;32;39427;-84
2023/05/15 05:23:13;;;;;;;9.38;6.25;;;;;;;16.06;68.38;98986.09;7683941;32;39875;-84
2023/05/15 05:27:30;;;;;;;9.00;5.80;;;;;;;16.31;67.42;98992.63;7683715;32;38790;-84
2023/05/15 05:31:46;;;;;;;10.00;6.12;;;;;;;16.36;67.71;98988.88;7683861;32;37135;-84
2023/05/15 05:36:04;;;;;;;10.23;6.72;;;;;;;16.29;67.56;99005.09;7683826;32;39301;-84
2023/05/15 05:40:20;;;;;;;9.35;5.65;;;;;;;16.32;67.78;98998.94;7682701;32;40084;-84
2023/05/15 05:44:36;;;;;;;8.48;5.60;;;;;;;16.48;67.25;98991.75;7683510;32;37938;-84
2023/05/15 05:48:52;;;;;;;10.05;6.30;;;;;;;16.71;66.69;98992.28;7672748;32;37001;-84
2023/05/15 05:53:09;;;;;;;11.07;5.78;;;;;;;16.74;67.29;98999.06;7682911;32;39104;-84
2023/05/15 05:57:25;;;;;;;11.05;5.90;;;;;;;16.67;66.76;98987.78;7683291;32;40759;-84
2023/05/15 06:01:42;;;;;;;8.82;6.12;;;;;;;16.35;67.70;99009.28;7683174;32;38779;-84
2023/05/15 06:05:58;;;;;;;10.75;6.18;;;;;;;16.78;67.21;98978.00;7683099;32;37204;-84
2023/05/15 06:10:14;;;;;;;10.65;6.40;;;;;;;16.88;67.69;98976.81;7682935;32;40059;-84
2023/05/15 06:14:31;;;;;;;11.45;6.18;;;;;;;17.07;67.21;98979.97;7682827;32;39893;-84
2023/05/15 06:18:47;;;;;;;10.13;6.00;;;;;;;17.37;66.42;98976.34;7663769;32;37871;-85
2023/05/15 06:23:03;;;;;;;8.38;4.65;;;;;;;17.24;65.41;98983.72;7656317;32;37082;-84
2023/05/15 06:27:20;;;;;;;7.50;4.95;;;;;;;17.37;64.77;98987.34;7656109;32;39517;-76
2023/05/15 06:31:36;;;;;;;9.40;5.30;;;;;;;17.32;65.14;98993.84;7656157;32;39968;-79
2023/05/15 06:35:53;;;;;;;8.93;5.55;;;;;;;17.38;64.79;98992.50;7676989;32;37917;-82
2023/05/15 06:40:10;;;;;;;12.13;5.75;;;;;;;16.48;66.83;99010.19;7682334;32;37459;-84
2023/05/15 06:44:27;;;;;;;6.60;4.50;;;;;;;17.06;64.92;99010.56;7682366;32;39764;-83
2023/05/15 06:48:44;;;;;;;8.82;4.43;;;;;;;17.34;63.53;99010.84;7667329;32;39933;-83
2023/05/15 06:53:00;;;;;;;7.95;4.65;;;;;;;17.21;63.46;99007.25;7677862;32;37935;-83
2023/05/15 06:57:18;;;;;;;9.32;4.43;;;;;;;17.32;63.21;99004.09;7686210;32;36990;-84
2023/05/15 07:01:34;;;;;;;5.60;3.83;;;;;;;17.11;64.96;99010.37;7663859;32;39316;-84
2023/05/15 07:05:52;;;;;;;6.72;4.22;;;;;;;17.22;65.06;98995.06;7684241;32;40676;-84
2023/05/15 07:10:08;;;;;;;5.93;3.70;;;;;;;17.44;64.91;98982.09;7659403;32;39490;-84
2023/05/15 07:14:25;;;;;;;10.27;4.35;;;;;;;17.49;65.21;98989.34;7659343;32;37812;-73
2023/05/15 07:18:41;;;;;;;8.43;4.57;;;;;;;17.63;65.29;99001.69;7672211;32;39917;-85
2023/05/15 07:22:57;;;;;;;5.93;3.70;;;;;;;17.69;63.65;99001.50;7685566;32;39985;-84
2023/05/15 07:27:14;;;;;;;8.13;4.55;;;;;;;17.50;63.93;99002.78;7685411;32;37933;-85
2023/05/15 07:31:30;;;;;;;5.60;3.97;;;;;;;17.56;63.87;99012.47;7685567;32;37844;-85
2023/05/15 07:35:47;;;;;;;7.00;4.20;;;;;;;17.53;63.50;99012.34;7660197;32;39154;-85
2023/05/15 07:40:03;;;;;;;8.20;4.55;;;;;;;17.68;63.58;99008.97;7659041;32;40032;-86
2023/05/15 07:44:20;;;;;;;8.02;4.97;;;;;;;17.56;63.00;99023.50;7658907;32;37912;-85
2023/05/15 07:48:36;;;;;;;6.62;4.40;;;;;;;17.33;63.72;99025.75;7673710;32;37144;-85
2023/05/15 07:52:52;;;;;;;8.15;4.22;;;;;;;17.43;63.24;99019.84;7677917;32;39288;-85
2023/05/15 07:57:09;;;;;;;6.05;3.92;;;;;;;17.63;62.63;99006.41;7658458;32;39670;-85
2023/05/15 08:01:25;;;;;;;6.78;4.12;;;;;;;17.31;62.55;99006.00;7684441;32;37827;-83
2023/05/15 08:05:41;;;;;;;8.60;4.10;;;;;;;17.55;64.01;99010.84;7639667;32;1104512;-83
2023/05/15 08:09:58;;;;;;;7.40;4.47;;;;;;;17.48;64.04;99024.34;7658679;32;39499;-71
2023/05/15 08:14:14;;;;;;;7.43;4.80;;;;;;;17.56;63.62;99026.25;7667818;32;40016;-83
2023/05/15 08:18:31;;;;;;;9.18;5.50;;;;;;;17.83;64.49;99040.59;7664691;32;37676;-83
2023/05/15 08:22:47;;;;;;;10.48;6.22;;;;;;;17.70;64.54;99056.28;7658194;32;37829;-83
2023/05/15 08:27:08;;;;;;;11.30;7.07;;;;;;;17.50;64.80;99057.09;7658381;32;39381;-84
2023/05/15 08:31:24;;;;;;;13.23;8.00;;;;;;;16.89;66.70;99053.59;7632835;32;39869;-82
2023/05/15 08:35:40;;;;;;;12.88;7.97;;;;;;;16.76;66.49;99062.84;7658341;32;38647;-82
2023/05/15 08:39:57;;;;;;;16.48;8.60;;;;;;;16.72;66.67;99072.91;7658440;32;36936;-83
2023/05/15 08:44:13;;;;;;;15.43;8.70;;;;;;;16.27;68.44;99081.63;7656443;32;39375;-83
2023/05/15 08:48:30;;;;;;;15.75;8.60;;;;;;;16.43;67.98;99068.94;7656018;32;39889;-83
2023/05/15 08:52:48;;;;;;;17.00;8.65;;;;;;;15.85;69.35;99076.69;7658773;32;39123;-83
2023/05/15 08:57:05;;;;;;;16.20;8.05;;;;;;;16.18;68.69;99072.56;7683265;32;37235;-82
2023/05/15 09:01:22;;;;;;;15.23;7.87;;;;;;;16.45;68.33;99074.13;7668645;32;39136;-83
2023/05/15 09:05:40;;;;;;;17.37;8.05;;;;;;;16.55;68.41;99072.97;7649607;32;40680;-86
2023/05/15 09:09:58;;;;;;;11.98;7.25;;;;;;;16.49;68.32;99059.41;7657176;32;38694;-83
2023/05/15 09:14:14;;;;;;;13.48;7.35;;;;;;;16.24;69.40;99052.03;7658098;32;37310;-83
2023/05/15 09:18:34;;;;;;;13.48;7.68;;;;;;;16.24;69.48;99046.53;7675655;32;39440;-82
2023/05/15 09:22:51;;;;;;;12.93;7.37;;;;;;;16.00;70.23;99060.81;7663712;32;40649;-83
2023/05/15 09:27:08;;;;;;;12.90;7.07;;;;;;;16.60;68.04;99070.03;7679644;32;37847;-83
2023/05/15 09:31:26;;;;;;;12.50;7.50;;;;;;;16.26;68.64;99088.25;7710012;32;37213;-83
2023/05/15 09:35:44;;;;;;;11.00;6.80;;;;;;;16.08;68.57;99099.28;7658049;32;40916;-85
2023/05/15 09:40:10;;;;;;;11.32;6.40;;;;;;;16.09;68.56;99111.91;7656596;32;41047;-84
2023/05/15 09:44:27;;;;;;;10.60;6.57;;;;;;;16.51;67.62;99117.66;7671283;32;37645;-85
2023/05/15 09:48:44;;;;;;;10.85;6.47;;;;;;;16.53;68.35;99123.63;7676118;32;36202;-83
2023/05/15 09:53:00;;;;;;;10.23;6.07;;;;;;;16.65;66.06;99111.94;7655141;32;40135;-80
2023/05/15 09:57:22;;;;;;;11.75;6.32;;;;;;;16.17;66.91;99129.50;7676958;32;40813;-82
2023/05/15 10:01:41;;;;;;;10.38;5.78;;;;;;;16.30;66.17;99130.50;7682077;32;38047;-83
2023/05/15 10:06:02;;;;;;;9.68;5.60;;;;;;;16.82;65.20;99121.28;7664944;32;37147;-82
2023/05/15 10:10:19;;;;;;;9.30;5.57;;;;;;;17.04;65.64;99106.44;7653690;32;39138;-83
2023/05/15 10:14:35;;;;;;;9.88;5.37;;;;;;;17.01;64.00;99112.66;7669068;32;40780;-83
2023/05/15 10:18:52;;;;;;;8.48;5.10;;;;;;;17.49;62.97;99119.66;7674609;32;37881;-82
2023/05/15 10:23:09;;;;;;;9.32;4.90;;;;;;;17.36;61.44;99123.47;7642611;32;36850;-79
2023/05/15 10:27:26;;;;;;;9.10;4.82;;;;;;;17.40;61.43;99110.63;7658431;32;39231;-82
2023/05/15 10:31:44;;;;;;;7.03;4.55;;;;;;;17.53;61.57;99117.06;7645997;32;41127;-81
2023/05/15 10:36:02;;;;;;;6.30;3.90;;;;;;;17.55;59.63;99101.78;7647526;32;36986;-82
2023/05/15 10:40:19;;;;;;;6.55;4.22;;;;;;;17.38;61.35;99115.69;7674257;32;37096;-83
2023/05/15 10:44:35;;;;;;;7.97;4.05;;;;;;;17.44;62.00;99119.88;7684741;32;39138;-83
2023/05/15 10:48:52;;;;;;;6.68;3.85;;;;;;;17.74;60.70;99111.53;7686024;32;39942;-83
2023/05/15 10:53:09;;;;;;;5.55;3.30;;;;;;;17.93;60.07;99125.69;7685837;32;37838;-84
2023/05/15 10:57:28;;;;;;;5.10;3.17;;;;;;;17.51;61.78;99122.88;7672487;32;37325;-84
2023/05/15 11:01:45;;;;;;;5.35;3.22;;;;;;;17.34;61.47;99120.25;7639923;32;39184;-83
2023/05/15 11:06:12;;;;;;;8.65;3.60;;;;;;;17.65;60.74;99123.44;7670104;32;39957;-83
2023/05/15 11:10:29;;;;;;;6.03;3.50;;;;;;;17.56;60.77;99128.22;7666631;32;36937;-83
2023/05/15 11:14:54;;;;;;;4.80;3.20;;;;;;;17.65;59.20;99120.69;7686140;32;36959;-83
2023/05/15 11:19:31;;;;;;;6.07;2.80;;;;;;;17.59;58.80;99122.03;7685739;32;39280;-84
2023/05/15 11:24:02;;;;;;;3.97;2.25;;;;;;;17.91;58.73;99114.19;7667786;32;40004;-84
2023/05/15 11:28:22;;;;;;;3.08;2.20;;;;;;;17.41;57.70;99115.81;7666192;32;38685;-83
2023/05/15 11:32:55;;;;;;;3.47;2.50;;;;;;;17.30;58.44;99113.78;7658863;32;37130;-84
2023/05/15 11:37:17;;;;;;;4.00;2.20;;;;;;;17.82;58.97;99099.66;7662890;32;39866;-83
2023/05/15 11:41:33;;;;;;;2.72;1.98;;;;;;;18.12;58.23;99094.84;7675238;32;40768;-83
2023/05/15 11:45:57;;;;;;;4.18;2.25;;;;;;;18.39;56.19;99098.16;7658731;32;37873;-83
2023/05/15 11:50:15;;;;;;;2.87;1.95;;;;;;;18.20;55.82;99084.91;7659056;32;37625;-83
2023/05/15 11:54:31;;;;;;;3.22;2.28;;;;;;;18.72;55.80;99091.78;7655831;32;38904;-83
2023/05/15 11:58:54;;;;;;;2.33;1.98;;;;;;;19.10;54.67;99094.25;7657451;32;39984;-83
2023/05/15 12:03:19;;;;;;;3.77;2.03;;;;;;;18.93;53.29;99097.25;7658072;32;37910;-83
2023/05/15 12:07:42;;;;;;;2.45;2.10;;;;;;;19.30;55.34;99091.72;7664155;32;37811;-84
2023/05/15 12:11:58;;;;;;;2.55;1.65;;;;;;;19.43;53.85;99096.06;7671924;32;39371;-83
2023/05/15 12:16:15;;;;;;;2.15;1.67;;;;;;;20.00;52.80;99096.97;7680403;32;40783;-84
2023/05/15 12:20:33;;;;;;;1.62;1.35;;;;;;;20.02;51.01;99099.38;7666950;32;38633;-85
2023/05/15 12:24:50;;;;;;;1.87;1.37;;;;;;;19.97;52.23;99102.41;7648181;32;36321;-83
2023/05/15 12:29:07;;;;;;;1.48;1.37;;;;;;;19.85;49.94;99112.34;7665304;32;40195;-84
2023/05/15 12:33:23;;;;;;;2.70;1.90;;;;;;;19.57;51.69;99117.00;7666696;32;39813;-83
2023/05/15 12:37:41;;;;;;;6.12;2.33;;;;;;;19.60;51.81;99106.03;7664826;32;37933;-84
2023/05/15 12:41:58;;;;;;;2.08;1.73;;;;;;;19.85;51.98;99106.81;7674617;32;37096;-84
2023/05/15 12:46:14;;;;;;;2.45;1.65;;;;;;;19.92;51.39;99116.47;7680349;32;39452;-85
2023/05/15 12:50:34;;;;;;;1.98;1.40;;;;;;;19.75;51.00;99123.91;7653134;32;40825;-85
2023/05/15 12:54:51;;;;;;;1.73;1.50;;;;;;;19.30;52.26;99122.13;7664274;32;38730;-84
2023/05/15 12:59:07;;;;;;;2.25;1.70;;;;;;;19.48;51.89;99117.94;7674938;32;36790;-84
2023/05/15 13:03:25;;;;;;;1.70;1.60;;;;;;;19.47;52.14;99107.22;7684401;32;40054;-84
2023/05/15 13:07:42;;;;;;;3.83;1.87;;;;;;;19.59;52.71;99103.63;7669232;32;40868;-84
2023/05/15 13:12:02;;;;;;;1.80;1.60;;;;;;;19.81;50.48;99094.03;7669559;32;38627;-84
2023/05/15 13:16:24;;;;;;;2.15;1.40;;;;;;;20.33;50.70;99086.78;7660967;32;37029;-84
2023/05/15 13:20:42;;;;;;;1.87;1.50;;;;;;;20.97;48.22;99065.47;7653053;32;39427;-84
2023/05/15 13:24:58;;;;;;;2.33;1.80;;;;;;;20.99;47.98;99069.53;7667553;32;39876;-84
2023/05/15 13:29:15;;;;;;;1.90;1.65;;;;;;;20.80;47.79;99077.75;7657390;32;37905;-82
2023/05/15 13:33:31;;;;;;;4.28;1.70;;;;;;;21.57;46.68;99065.28;7657637;32;36924;-81
2023/05/15 13:37:48;;;;;;;1.98;1.40;;;;;;;21.68;47.16;99065.50;7657548;32;39400;-82
2023/05/15 13:42:04;;;;;;;1.77;1.45;;;;;;;22.23;47.03;99059.88;7657206;32;39880;-82
2023/05/15 13:46:21;;;;;;;3.72;1.62;;;;;;;22.30;45.43;99062.81;7665033;32;37747;-83
2023/05/15 13:50:39;;;;;;;3.25;2.08;;;;;;;23.15;43.51;99056.31;7672549;32;37937;-83
2023/05/15 13:54:55;;;;;;;2.05;1.83;;;;;;;23.18;42.89;99070.28;7657098;32;41722;-83
2023/05/15 13:59:12;;;;;;;2.78;1.92;;;;;;;23.38;43.75;99053.47;7666757;32;40001;-83
2023/05/15 14:03:28;;;;;;;3.87;1.48;;;;;;;22.76;41.87;99054.47;7659365;32;38178;-81
2023/05/15 14:07:45;;;;;;;4.25;1.50;;;;;;;22.33;40.61;99062.06;7658099;32;37167;-81
2023/05/15 14:12:01;;;;;;;2.78;1.40;;;;;;;22.51;44.08;99051.31;7667666;32;40353;-82
2023/05/15 14:16:17;;;;;;;3.60;1.23;;;;;;;22.11;44.03;99060.81;7659380;32;39924;-83
2023/05/15 14:20:33;;;;;;;4.35;1.45;;;;;;;22.24;44.11;99073.38;7680425;32;37969;-82
2023/05/15 14:24:51;;;;;;;1.30;1.20;;;;;;;21.38;44.50;99075.16;7685437;32;37125;-83
2023/05/15 14:29:08;;;;;;;1.85;1.48;;;;;;;21.55;44.84;99076.75;7685348;32;39270;-82
2023/05/15 14:33:25;;;;;;;2.55;1.40;;;;;;;21.67;45.09;99073.03;7686190;32;40056;-72
2023/05/15 14:37:42;;;;;;;1.37;1.20;;;;;;;21.54;45.72;99082.66;7678739;32;38837;-73
2023/05/15 14:41:58;;;;;;;1.27;1.10;;;;;;;20.80;47.77;99091.63;7683224;32;36964;-82
2023/05/15 14:46:14;;;;;;;1.50;1.27;;;;;;;20.69;48.95;99087.75;7672706;32;39262;-82
2023/05/15 14:50:31;;;;;;;2.17;1.62;;;;;;;21.22;49.09;99091.03;7659799;32;40888;-82
2023/05/15 14:54:47;;;;;;;3.58;1.10;;;;;;;21.78;47.95;99086.34;7664773;32;37771;-83
2023/05/15 14:59:16;;;;;;;4.22;1.35;;;;;;;22.43;47.88;99077.34;7680605;32;37914;-83
2023/05/15 15:03:32;;;;;;;1.83;1.17;;;;;;;22.60;45.46;99079.63;7678588;32;40119;-83
2023/05/15 15:08:00;;;;;;;1.25;1.00;;;;;;;22.41;44.64;99079.69;7667101;32;39812;-83
2023/05/15 15:12:16;;;;;;;1.15;0.73;;;;;;;21.75;45.55;99082.34;7659302;32;38836;-83
2023/05/15 15:16:34;;;;;;;1.35;0.98;;;;;;;21.61;45.73;99082.00;7659453;32;38009;-83
2023/05/15 15:20:51;;;;;;;1.98;1.08;;;;;;;21.56;45.79;99099.75;7683449;32;38357;-83
2023/05/15 15:25:07;;;;;;;0.77;0.77;;;;;;;21.22;45.04;99106.88;7669674;32;40626;-82
2023/05/15 15:29:24;;;;;;;0.70;0.70;;;;;;;21.67;44.81;99098.00;7659031;32;37901;-83
2023/05/15 15:33:40;;;;;;;0.80;0.80;;;;;;;21.37;45.59;99095.75;7659180;32;37140;-83
2023/05/15 15:37:56;;;;;;;2.10;0.65;;;;;;;20.85;47.43;99101.59;7659212;32;39241;-83
2023/05/15 15:42:13;;;;;;;1.65;1.00;;;;;;;21.00;46.35;99114.66;7659085;32;40079;-84
2023/05/15 15:46:29;;;;;;;5.10;0.80;;;;;;;21.12;46.93;99105.44;7677180;32;38604;-85
2023/05/15 15:50:46;;;;;;;2.05;0.65;;;;;;;21.36;45.05;99110.75;7685161;32;37057;-83
2023/05/15 15:55:02;;;;;;;1.20;0.80;;;;;;;20.93;45.91;99104.19;7684710;32;39329;-84
2023/05/15 15:59:20;;;;;;;0.77;0.75;;;;;;;20.96;45.86;99114.56;7681686;32;39879;-85
2023/05/15 16:03:36;;;;;;;5.80;0.57;;;;;;;20.54;47.39;99103.97;7671022;32;37824;-84
2023/05/15 16:07:53;;;;;;;1.12;0.62;;;;;;;20.90;46.71;99104.91;7662091;32;36852;-85
2023/05/15 16:12:09;;;;;;;0.52;0.52;;;;;;;20.65;46.81;99109.81;7660993;32;39314;-84
2023/05/15 16:16:25;;;;;;;0.60;0.60;;;;;;;20.55;46.03;99110.31;7669571;32;40160;-83
2023/05/15 16:20:42;;;;;;;0.70;0.70;;;;;;;20.33;47.17;99117.22;7684785;32;38102;-84
2023/05/15 16:24:59;;;;;;;1.40;0.60;;;;;;;20.58;46.87;99110.41;7683707;32;38305;-83
2023/05/15 16:29:17;;;;;;;1.20;0.65;;;;;;;20.76;46.09;99101.78;7657834;32;39381;-83
2023/05/15 16:33:33;;;;;;;2.20;0.45;;;;;;;20.17;45.89;99106.94;7683401;32;40880;-83
2023/05/15 16:37:50;;;;;;;0.50;0.50;;;;;;;20.50;46.37;99105.84;7658105;32;37890;-83
2023/05/15 16:42:08;;;;;;;1.60;0.50;;;;;;;20.68;45.95;99108.28;7658669;32;38225;-83
2023/05/15 16:46:24;;;;;;;0.52;0.52;;;;;;;21.10;45.33;99118.84;7679732;32;39388;-83
2023/05/15 16:50:41;;;;;;;0.60;0.60;;;;;;;20.98;46.67;99128.06;7660658;32;40639;-83
2023/05/15 16:54:58;;;;;;;1.75;0.60;;;;;;;20.52;45.18;99133.16;7658065;32;38513;-85
2023/05/15 16:59:15;;;;;;;1.55;0.70;;;;;;;20.47;45.45;99139.75;7666114;32;35190;-85
2023/05/15 17:03:32;;;;;;;0.90;0.68;;;;;;;20.11;46.59;99149.84;7674729;32;39439;-84
2023/05/15 17:07:51;;;;;;;2.47;0.77;;;;;;;20.39;46.25;99146.28;7663316;32;39942;-86
2023/05/15 17:12:07;;;;;;;0.43;0.43;;;;;;;20.34;46.72;99144.56;7678670;32;38542;-86
2023/05/15 17:16:24;;;;;;;2.15;0.70;;;;;;;20.37;46.67;99143.88;7683749;32;37116;-85
2023/05/15 17:20:43;;;;;;;2.15;0.68;;;;;;;20.52;46.39;99142.28;7683384;32;40175;-85
2023/05/15 17:25:00;;;;;;;0.52;0.52;;;;;;;20.65;47.17;99136.72;7674032;32;39990;-84
2023/05/15 17:29:17;;;;;;;1.87;0.70;;;;;;;20.55;48.33;99144.34;7679051;32;38020;-85
2023/05/15 17:33:34;;;;;;;1.05;0.60;;;;;;;20.54;47.07;99151.06;7682052;32;37544;-85
2023/05/15 17:37:51;;;;;;;1.73;1.10;;;;;;;20.54;48.61;99147.47;7655805;32;40017;-84
2023/05/15 17:42:08;;;;;;;3.58;1.40;;;;;;;20.59;48.57;99161.88;7657034;32;39934;-84
2023/05/15 17:46:25;;;;;;;2.05;1.20;;;;;;;20.48;48.16;99171.03;7656919;32;37833;-84
2023/05/15 17:50:41;;;;;;;3.15;1.10;;;;;;;20.35;48.55;99160.03;7656696;32;37041;-84
2023/05/15 17:54:58;;;;;;;2.58;0.90;;;;;;;20.28;48.16;99173.62;7672905;32;39365;-84
2023/05/15 17:59:14;;;;;;;0.70;0.68;;;;;;;20.12;48.64;99181.88;7682498;32;40862;-84
2023/05/15 18:03:32;;;;;;;0.73;0.70;;;;;;;20.08;49.33;99184.56;7682581;32;38473;-84
2023/05/15 18:07:49;;;;;;;0.82;0.82;;;;;;;19.97;49.26;99179.84;7682442;32;37891;-85
2023/05/15 18:12:05;;;;;;;3.33;0.70;;;;;;;19.86;49.03;99185.87;7682070;32;39335;-85
2023/05/15 18:16:22;;;;;;;0.80;0.80;;;;;;;19.79;49.42;99182.88;7680124;32;40036;-84
2023/05/15 18:20:39;;;;;;;2.97;0.70;;;;;;;19.66;50.98;99176.56;7681892;32;38630;-83
2023/05/15 18:24:55;;;;;;;4.32;1.25;;;;;;;19.60;51.33;99179.91;7682550;32;36278;-83
2023/05/15 18:29:12;;;;;;;2.58;1.33;;;;;;;19.36;51.95;99184.28;7674774;32;39417;-84
2023/05/15 18:33:28;;;;;;;3.25;1.30;;;;;;;19.31;51.58;99173.44;7682257;32;40023;-84
2023/05/15 18:37:44;;;;;;;1.08;1.00;;;;;;;19.26;51.94;99181.97;7655204;32;39394;-83
2023/05/15 18:42:00;;;;;;;1.33;1.15;;;;;;;18.84;53.30;99190.44;7655108;32;37057;-81
2023/05/15 18:46:17;;;;;;;2.25;1.60;;;;;;;18.95;52.29;99202.66;7666996;32;40517;-84
2023/05/15 18:50:33;;;;;;;2.03;1.50;;;;;;;18.71;54.08;99209.72;7685583;32;39701;-86
2023/05/15 18:54:51;;;;;;;6.22;1.85;;;;;;;18.75;54.14;99220.88;7673340;32;37682;-85
2023/05/15 18:59:08;;;;;;;2.90;1.65;;;;;;;18.56;54.85;99224.94;7685323;32;37142;-85
2023/05/15 19:03:25;;;;;;;3.50;1.48;;;;;;;18.61;54.72;99229.47;7685244;32;39378;-85
2023/05/15 19:07:41;;;;;;;6.85;2.12;;;;;;;18.32;56.02;99235.88;7673332;32;39754;-86
2023/05/15 19:12:01;;;;;;;2.22;1.70;;;;;;;18.24;56.23;99234.78;7644890;32;39474;-85
2023/05/15 19:16:20;;;;;;;3.00;1.50;;;;;;;18.16;56.40;99244.75;7645445;32;37044;-85
2023/05/15 19:20:37;;;;;;;2.83;1.48;;;;;;;18.14;56.52;99251.75;7658000;32;39187;-85
2023/05/15 19:24:53;;;;;;;2.58;1.40;;;;;;;17.96;57.40;99240.84;7659221;32;40812;-85
2023/05/15 19:29:10;;;;;;;1.40;1.30;;;;;;;17.91;57.64;99252.06;7659067;32;38010;-84
2023/05/15 19:33:26;;;;;;;2.22;1.30;;;;;;;17.60;58.96;99249.59;7659171;32;37960;-86
2023/05/15 19:37:43;;;;;;;1.23;1.08;;;;;;;17.78;58.08;99261.34;7659278;32;39113;-84
2023/05/15 19:41:59;;;;;;;2.05;1.35;;;;;;;17.78;57.94;99266.84;7659148;32;40706;-84
2023/05/15 19:46:16;;;;;;;4.40;1.45;;;;;;;17.52;58.90;99270.53;7658890;32;37848;-88
2023/05/15 19:50:37;;;;;;;1.60;1.27;;;;;;;17.35;59.40;99279.72;7659475;32;37183;-87
2023/05/15 19:54:55;;;;;;;4.50;1.45;;;;;;;17.33;59.48;99289.44;7662469;32;38084;-87
2023/05/15 19:59:11;;;;;;;3.35;1.40;;;;;;;17.31;59.10;99288.94;7668801;32;39682;-88
2023/05/15 20:03:31;;;;;;;2.00;1.37;;;;;;;17.42;58.64;99292.97;7678658;32;37318;-87
2023/05/15 20:07:48;;;;;;;4.87;1.40;;;;;;;17.33;58.73;99289.44;7663119;32;37817;-88